Home > Products > Valid Products > MTR

000
SAUS46 KMTR 021958
MTRMHS
METAR KMHS 021956Z AUTO 10SM CLR 31/06 A2990 RMK AO2 SLP108
T03060061





000
SAUS46 KMTR 021857
MTRMHS
METAR KMHS 021856Z AUTO 00000KT 10SM CLR 29/06 A2993 RMK AO2 SLP115
T02940061





000
SAUS46 KMTR 021656
MTRMHS
METAR KMHS 021656Z AUTO 00000KT 10SM CLR 24/08 A2995 RMK AO2 SLP127
T02440078





000
SAUS46 KMTR 021558
MTRMHS
METAR KMHS 021556Z AUTO 00000KT 10SM CLR 18/07 A2996 RMK AO2 SLP135
T01830072





000
SAUS46 KMTR 021456
MTRMHS
METAR KMHS 021456Z AUTO 00000KT 10SM CLR 13/05 A2996 RMK AO2 SLP136
T01280050 53002





000
SAUS46 KMTR 021256
MTRMHS
METAR KMHS 021256Z AUTO 00000KT 10SM CLR 09/03 A2995 RMK AO2 SLP132
T00890028





000
SAUS46 KMTR 021156
MTRMHS
METAR KMHS 021156Z AUTO 07003KT 10SM CLR 11/02 A2995 RMK AO2 SLP131
T01060022 10183 20106 58004





000
SAUS46 KMTR 021056
MTRMHS
METAR KMHS 021056Z AUTO 05003KT 10SM CLR 11/02 A2996 RMK AO2 SLP130
T01110022





000
SAUS46 KMTR 020956
MTRMHS
METAR KMHS 020956Z AUTO 04003KT 10SM CLR 12/02 A2996 RMK AO2 SLP132
T01220022





000
SAUS46 KMTR 020856
MTRMHS
METAR KMHS 020856Z AUTO 05004KT 10SM CLR 13/03 A2996 RMK AO2 SLP133
T01280028 58004





000
SAUS46 KMTR 020756
MTRMHS
METAR KMHS 020756Z AUTO 07003KT 10SM CLR 14/04 A2997 RMK AO2 SLP136
T01390039 403060094





000
SAUS46 KMTR 020656
MTRMHS
METAR KMHS 020656Z AUTO 00000KT 10SM CLR 16/04 A2998 RMK AO2 SLP139
T01560039





000
SAUS46 KMTR 020456
MTRMHS
METAR KMHS 020456Z AUTO 05003KT 10SM CLR 18/03 A2997 RMK AO2 SLP139
T01780033





000
SAUS46 KMTR 020356
MTRMHS
METAR KMHS 020356Z AUTO 00000KT 10SM CLR 18/04 A2996 RMK AO2 SLP136
T01830039





000
SAUS46 KMTR 020356
MTRMHS
METAR KMHS 020356Z AUTO 00000KT 10SM CLR 18/04 A2996 RMK AO2 SLP136
T01830039





000
SAUS46 KMTR 020257
MTRMHS
METAR KMHS 020256Z AUTO VRB03KT 10SM CLR 23/03 A2995 RMK AO2 SLP132
T02280028 55003





000
SAUS46 KMTR 020156
MTRMHS
METAR KMHS 020156Z AUTO VRB04KT 10SM CLR 26/03 A2994 RMK AO2 SLP130
T02610033





000
SAUS46 KMTR 020056
MTRMHS
METAR KMHS 020056Z AUTO VRB04KT 10SM CLR 28/03 A2995 RMK AO2 SLP129
T02780028





000
SAUS46 KMTR 012356
MTRMHS
METAR KMHS 012356Z AUTO VRB06KT 10SM CLR 28/03 A2996 RMK AO2 SLP133
T02830033 10306 20228 56018





000
SAUS46 KMTR 012256
MTRMHS
METAR KMHS 012256Z AUTO 28005KT 10SM CLR 30/04 A2997 RMK AO2 SLP133
T03000039





000
SAUS46 KMTR 012156
MTRMHS
METAR KMHS 012156Z AUTO VRB04KT 10SM CLR 28/05 A2998 RMK AO2 SLP138
T02830050





000
SAUS46 KMTR 012056
MTRMHS
METAR KMHS 012056Z AUTO VRB05KT 10SM CLR 28/06 A3001 RMK AO2 SLP148
T02780056 58016





000
SAUS46 KMTR 011956
MTRMHS
METAR KMHS 011956Z AUTO 27004KT 10SM CLR 27/05 A3003 RMK AO2 SLP154
T02670050





000
SAUS46 KMTR 011856
MTRMHS
METAR KMHS 011856Z AUTO VRB04KT 10SM CLR 24/05 A3005 RMK AO2 SLP164
T02440050





000
SAUS46 KMTR 011756
MTRMHS
METAR KMHS 011756Z AUTO VRB04KT 10SM CLR 22/05 A3007 RMK AO2 SLP170
T02220050 10228 20094 58005





000
SAUS46 KMTR 011656
MTRMHS
METAR KMHS 011656Z AUTO VRB03KT 10SM CLR 21/06 A3008 RMK AO2 SLP175
T02060056





000
SAUS46 KMTR 011556
MTRMHS
METAR KMHS 011556Z AUTO VRB03KT 10SM CLR 18/07 A3008 RMK AO2 SLP178
T01780072





000
SAUS46 KMTR 011456
MTRMHS
METAR KMHS 011456Z AUTO 00000KT 10SM CLR 13/07 A3008 RMK AO2 SLP182
T01330067 53004





000
SAUS46 KMTR 011356
MTRMHS
METAR KMHS 011356Z AUTO 00000KT 10SM CLR 09/06 A3007 RMK AO2 SLP181
T00940056





000
SAUS46 KMTR 011256
MTRMHS
METAR KMHS 011256Z AUTO 00000KT 10SM CLR 11/05 A3007 RMK AO2 SLP176
T01060050





000
SAUS46 KMTR 011156
MTRMHS
METAR KMHS 011156Z AUTO 00000KT 10SM CLR 11/05 A3007 RMK AO2 SLP177
T01060050 10178 20106 50001





000
SAUS46 KMTR 011056
MTRMHS
METAR KMHS 011056Z AUTO 00000KT 10SM FEW048 12/05 A3007 RMK AO2
SLP175 T01220050





000
SAUS46 KMTR 010956
MTRMHS
METAR KMHS 010956Z AUTO 00000KT 10SM OVC050 14/04 A3007 RMK AO2
SLP171 T01390044





000
SAUS46 KMTR 010856
MTRMHS
METAR KMHS 010856Z AUTO 00000KT 10SM OVC055 15/04 A3007 RMK AO2
SLP170 T01500044 50004





000
SAUS46 KMTR 010756
MTRMHS
METAR KMHS 010756Z AUTO VRB06KT 10SM BKN060 16/04 A3007 RMK AO2
SLP171 T01610039 402560078





000
SAUS46 KMTR 010656
MTRMHS
METAR KMHS 010656Z AUTO 10SM CLR 17/03 A3006 RMK AO2 SLP170
T01670033





000
SAUS46 KMTR 010556
MTRMHS
METAR KMHS 010556Z AUTO VRB06KT 10SM CLR 17/03 A3005 RMK AO2 SLP169
T01720033 10239 20172 51012





000
SAUS46 KMTR 010456
MTRMHS
METAR KMHS 010456Z AUTO VRB06KT 10SM CLR 18/03 A3005 RMK AO2 SLP168
T01830033





000
SAUS46 KMTR 010356
MTRMHS
METAR KMHS 010356Z AUTO VRB03KT 10SM CLR 19/03 A3004 RMK AO2 SLP165
T01940033





000
SAUS46 KMTR 010256
MTRMHS
METAR KMHS 010256Z AUTO VRB06KT 10SM CLR 21/01 A3001 RMK AO2 SLP159
T02110011 53006





000
SAUS46 KMTR 010156
MTRMHS
METAR KMHS 010156Z AUTO VRB04KT 5SM HZ OVC048 23/02 A3000 RMK AO2
SLP157 T02280022





000
SAUS46 KMTR 010156
MTRMHS
METAR KMHS 010156Z AUTO VRB04KT 5SM HZ OVC048 23/02 A3000 RMK AO2
SLP157 T02280022





000
SAUS46 KMTR 010056
MTRMHS
METAR KMHS 010056Z AUTO VRB04KT 3SM HZ OVC035 24/02 A3000 RMK AO2
SLP154 T02390022





000
SAUS46 KMTR 312258
MTRMHS
METAR KMHS 312256Z AUTO 32008G15KT 4SM HZ BKN029 OVC035 24/01 A3001
RMK AO2 SLP154 T02440011





000
SAUS46 KMTR 312252
MTRMHS
SPECI KMHS 312251Z AUTO 33007G17KT 270V030 4SM HZ BKN029 OVC035
25/02 A3001 RMK AO2





000
SAUS46 KMTR 312221
MTRMHS
SPECI KMHS 312219Z AUTO VRB06G16KT 3SM HZ OVC033 25/M01 A3002 RMK
AO2 T02501006





000
SAUS46 KMTR 312212
MTRMHS
SPECI KMHS 312210Z AUTO VRB06G15KT 2 1/2SM HZ OVC033 24/01 A3002 RMK
AO2 T02440006





000
SAUS46 KMTR 312156
MTRMHS
METAR KMHS 312156Z AUTO VRB05G18KT 2 1/2SM HZ BKN024 OVC036 24/01
A3002 RMK AO2 SLP156 T02440011





000
SAUS46 KMTR 312133
MTRMHS
SPECI KMHS 312133Z AUTO 31007G18KT 280V350 2SM HZ OVC018 25/00 A3003
RMK AO2 T02500000





000
SAUS46 KMTR 312056
MTRMHS
METAR KMHS 312056Z AUTO 34007G17KT 320V030 1 1/2SM HZ BKN018 25/02
A3004 RMK AO2 SLP160 T02500017 56005





000
SAUS46 KMTR 312054
MTRMHS
SPECI KMHS 312054Z AUTO VRB06G17KT 1 1/2SM HZ BKN018 25/01 A3004 RMK
AO2





000
SAUS46 KMTR 312024
MTRMHS
SPECI KMHS 312022Z AUTO VRB06G19KT 3SM HZ BKN023 24/03 A3004 RMK AO2
T02390028





000
SAUS46 KMTR 311956
MTRMHS
METAR KMHS 311956Z AUTO 4SM HZ CLR 24/02 A3004 RMK AO2 SLP163
T02390017





000
SAUS46 KMTR 311856
MTRMHS
METAR KMHS 311856Z AUTO VRB06G14KT 6SM HZ CLR 22/08 A3005 RMK AO2
SLP167 T02170083





000
SAUS46 KMTR 311756
MTRMHS
METAR KMHS 311756Z AUTO VRB06KT 10SM CLR 19/08 A3007 RMK AO2 SLP173
T01890083 10194 20078 58001





000
SAUS46 KMTR 311656
MTRMHS
METAR KMHS 311656Z AUTO 10SM CLR 18/09 A3007 RMK AO2 SLP176
T01780094





000
SAUS46 KMTR 311556
MTRMHS
METAR KMHS 311556Z AUTO VRB06KT 10SM CLR 16/09 A3007 RMK AO2 SLP176
T01560089





000
SAUS46 KMTR 311456
MTRMHS
METAR KMHS 311456Z AUTO 00000KT 10SM CLR 12/09 A3007 RMK AO2 SLP178
T01220089 51010





000
SAUS46 KMTR 311356
MTRMHS
METAR KMHS 311356Z AUTO 00000KT 10SM CLR 08/07 A3006 RMK AO2 SLP179
T00830067





000
SAUS46 KMTR 311256
MTRMHS
METAR KMHS 311256Z AUTO 00000KT 10SM CLR 08/06 A3005 RMK AO2 SLP172
T00830061





000
SAUS46 KMTR 311156
MTRMHS
METAR KMHS 311156Z AUTO 00000KT 10SM CLR 10/08 A3004 RMK AO2 SLP165
T01000078 10172 20100 50005





000
SAUS46 KMTR 311056
MTRMHS
METAR KMHS 311056Z AUTO 00000KT 10SM CLR 11/08 A3004 RMK AO2 SLP167
T01110078





000
SAUS46 KMTR 310958
MTRMHS
METAR KMHS 310956Z AUTO 00000KT 10SM CLR 13/08 A3003 RMK AO2 SLP159
T01330083





000
SAUS46 KMTR 310856
MTRMHS
METAR KMHS 310856Z AUTO VRB04KT 10SM CLR 14/08 A3002 RMK AO2 SLP155
T01440083 51003





000
SAUS46 KMTR 310756
MTRMHS
METAR KMHS 310756Z AUTO 33003KT 10SM CLR 14/08 A3002 RMK AO2 SLP154
T01440078 402440122





000
SAUS46 KMTR 310656
MTRMHS
METAR KMHS 310656Z AUTO VRB05KT 10SM CLR 16/07 A3001 RMK AO2 SLP152
T01560072





000
SAUS46 KMTR 310556
MTRMHS
METAR KMHS 310556Z AUTO 30007KT 280V340 10SM FEW030 17/07 A3001 RMK
AO2 SLP151 T01720067 10244 20172 51013





000
SAUS46 KMTR 310456
MTRMHS
METAR KMHS 310456Z AUTO 00000KT 8SM OVC034 18/06 A2999 RMK AO2
SLP148 T01830061





000
SAUS46 KMTR 310356
MTRMHS
METAR KMHS 310356Z AUTO VRB06KT 8SM OVC041 20/06 A2998 RMK AO2
SLP144 T02000061





000
SAUS46 KMTR 310256
MTRMHS
METAR KMHS 310256Z AUTO 29004KT 5SM HZ OVC046 21/06 A2997 RMK AO2
SLP139 T02060061 53002





000
SAUS46 KMTR 310217
MTRMHS
SPECI KMHS 310216Z AUTO VRB04KT 2 1/2SM HZ OVC028 21/06 A2995 RMK
AO2 T02110061





    US Dept of Commerce
    National Oceanic and Atmospheric Administration
    National Weather Service
    1325 East West Highway
    Silver Spring, MD 20910
    Page Author: NWS Internet Services Team
Disclaimer
Information Quality
Credits
Glossary
Privacy Policy
Freedom of Information Act (FOIA)
About Us
Career Opportunities